sensor_id;sensor_type;location;lat;lon;timestamp;pressure;altitude;pressure_sealevel;temperature;humidity
3668;BME280;24099;47.102;15.440;2023-05-16T00:00:31;96778.59;;;10.73;100.00
3668;BME280;24099;47.102;15.440;2023-05-16T00:03:02;96779.22;;;10.82;100.00
3668;BME280;24099;47.102;15.440;2023-05-16T00:05:30;96779.31;;;10.95;100.00
3668;BME280;24099;47.102;15.440;2023-05-16T00:07:57;96767.66;;;11.11;100.00
3668;BME280;24099;47.102;15.440;2023-05-16T00:10:25;96776.50;;;10.96;100.00
3668;BME280;24099;47.102;15.440;2023-05-16T00:12:53;96779.53;;;10.93;100.00
3668;BME280;24099;47.102;15.440;2023-05-16T00:15:21;96784.59;;;10.67;100.00
3668;BME280;24099;47.102;15.440;2023-05-16T00:17:50;96788.88;;;10.68;100.00
3668;BME280;24099;47.102;15.440;2023-05-16T00:20:19;96789.41;;;10.57;100.00
3668;BME280;24099;47.102;15.440;2023-05-16T00:22:48;96782.50;;;10.56;100.00
3668;BME280;24099;47.102;15.440;2023-05-16T00:25:19;96772.63;;;10.58;100.00
3668;BME280;24099;47.102;15.440;2023-05-16T00:27:47;96763.31;;;10.62;100.00
3668;BME280;24099;47.102;15.440;2023-05-16T00:30:15;96762.59;;;10.75;100.00
3668;BME280;24099;47.102;15.440;2023-05-16T00:32:43;96755.28;;;10.70;100.00
3668;BME280;24099;47.102;15.440;2023-05-16T00:35:11;96752.06;;;10.75;100.00
3668;BME280;24099;47.102;15.440;2023-05-16T00:37:40;96750.63;;;10.72;100.00
3668;BME280;24099;47.102;15.440;2023-05-16T00:40:09;96743.44;;;10.59;100.00
3668;BME280;24099;47.102;15.440;2023-05-16T00:42:40;96741.53;;;10.75;100.00
3668;BME280;24099;47.102;15.440;2023-05-16T00:45:08;96724.84;;;10.95;100.00
3668;BME280;24099;47.102;15.440;2023-05-16T00:47:39;96718.28;;;10.85;100.00
3668;BME280;24099;47.102;15.440;2023-05-16T00:50:10;96705.06;;;10.72;100.00
3668;BME280;24099;47.102;15.440;2023-05-16T00:52:39;96687.16;;;10.54;100.00
3668;BME280;24099;47.102;15.440;2023-05-16T00:55:08;96694.88;;;10.62;100.00
3668;BME280;24099;47.102;15.440;2023-05-16T00:57:40;96695.34;;;10.72;100.00
3668;BME280;24099;47.102;15.440;2023-05-16T01:00:09;96692.97;;;10.77;100.00
3668;BME280;24099;47.102;15.440;2023-05-16T01:02:37;96699.22;;;10.76;100.00
3668;BME280;24099;47.102;15.440;2023-05-16T01:05:10;96701.63;;;10.71;100.00
3668;BME280;24099;47.102;15.440;2023-05-16T01:07:43;96706.69;;;10.38;100.00
3668;BME280;24099;47.102;15.440;2023-05-16T01:10:12;96711.72;;;10.40;100.00
3668;BME280;24099;47.102;15.440;2023-05-16T01:12:44;96707.16;;;10.48;100.00
3668;BME280;24099;47.102;15.440;2023-05-16T01:15:21;96704.47;;;10.42;100.00
3668;BME280;24099;47.102;15.440;2023-05-16T01:17:59;96712.34;;;10.42;100.00
3668;BME280;24099;47.102;15.440;2023-05-16T01:20:35;96701.69;;;10.50;100.00
3668;BME280;24099;47.102;15.440;2023-05-16T01:23:16;96715.47;;;10.52;100.00
3668;BME280;24099;47.102;15.440;2023-05-16T01:25:56;96713.59;;;10.46;100.00
3668;BME280;24099;47.102;15.440;2023-05-16T01:28:27;96713.78;;;10.38;100.00
3668;BME280;24099;47.102;15.440;2023-05-16T01:30:56;96709.25;;;10.31;100.00
3668;BME280;24099;47.102;15.440;2023-05-16T01:33:24;96713.97;;;10.36;100.00
3668;BME280;24099;47.102;15.440;2023-05-16T01:35:56;96714.59;;;10.38;100.00
3668;BME280;24099;47.102;15.440;2023-05-16T01:38:31;96706.81;;;10.30;100.00
3668;BME280;24099;47.102;15.440;2023-05-16T01:41:05;96698.75;;;10.31;100.00
3668;BME280;24099;47.102;15.440;2023-05-16T01:43:41;96681.72;;;10.27;100.00
3668;BME280;24099;47.102;15.440;2023-05-16T01:46:11;96672.91;;;10.42;100.00
3668;BME280;24099;47.102;15.440;2023-05-16T01:48:48;96667.63;;;10.42;100.00
3668;BME280;24099;47.102;15.440;2023-05-16T01:51:21;96654.84;;;10.32;100.00
3668;BME280;24099;47.102;15.440;2023-05-16T01:53:49;96656.34;;;10.48;100.00
3668;BME280;24099;47.102;15.440;2023-05-16T01:56:19;96652.78;;;10.62;100.00
3668;BME280;24099;47.102;15.440;2023-05-16T01:58:50;96649.25;;;10.48;100.00
3668;BME280;24099;47.102;15.440;2023-05-16T02:01:19;96641.00;;;10.51;100.00
3668;BME280;24099;47.102;15.440;2023-05-16T02:03:47;96637.25;;;10.80;100.00
3668;BME280;24099;47.102;15.440;2023-05-16T02:06:16;96631.31;;;10.58;100.00
3668;BME280;24099;47.102;15.440;2023-05-16T02:08:44;96612.38;;;10.35;100.00
3668;BME280;24099;47.102;15.440;2023-05-16T02:11:11;96605.28;;;10.35;100.00
3668;BME280;24099;47.102;15.440;2023-05-16T02:13:39;96594.88;;;10.62;100.00
3668;BME280;24099;47.102;15.440;2023-05-16T02:16:10;96595.97;;;10.74;100.00
3668;BME280;24099;47.102;15.440;2023-05-16T02:18:38;96608.31;;;10.74;100.00
3668;BME280;24099;47.102;15.440;2023-05-16T02:21:06;96604.47;;;10.76;100.00
3668;BME280;24099;47.102;15.440;2023-05-16T02:23:36;96595.50;;;10.57;100.00
3668;BME280;24099;47.102;15.440;2023-05-16T02:26:04;96599.25;;;10.42;100.00
3668;BME280;24099;47.102;15.440;2023-05-16T02:28:32;96604.72;;;10.47;100.00
3668;BME280;24099;47.102;15.440;2023-05-16T02:31:00;96600.66;;;10.38;100.00
3668;BME280;24099;47.102;15.440;2023-05-16T02:33:29;96588.50;;;10.37;100.00
3668;BME280;24099;47.102;15.440;2023-05-16T02:35:57;96587.03;;;10.27;100.00
3668;BME280;24099;47.102;15.440;2023-05-16T02:38:25;96582.69;;;10.48;100.00
3668;BME280;24099;47.102;15.440;2023-05-16T02:40:55;96596.59;;;10.42;100.00
3668;BME280;24099;47.102;15.440;2023-05-16T02:43:23;96597.66;;;10.47;100.00
3668;BME280;24099;47.102;15.440;2023-05-16T02:45:51;96599.03;;;10.43;100.00
3668;BME280;24099;47.102;15.440;2023-05-16T02:48:18;96592.53;;;10.32;100.00
3668;BME280;24099;47.102;15.440;2023-05-16T02:50:48;96587.38;;;10.52;100.00
3668;BME280;24099;47.102;15.440;2023-05-16T02:53:16;96581.28;;;10.52;100.00
3668;BME280;24099;47.102;15.440;2023-05-16T02:55:44;96583.25;;;10.37;100.00
3668;BME280;24099;47.102;15.440;2023-05-16T02:58:13;96584.44;;;10.34;100.00
3668;BME280;24099;47.102;15.440;2023-05-16T03:00:41;96593.59;;;10.45;100.00
3668;BME280;24099;47.102;15.440;2023-05-16T03:03:09;96603.34;;;10.16;100.00
3668;BME280;24099;47.102;15.440;2023-05-16T03:05:37;96603.16;;;10.18;100.00
3668;BME280;24099;47.102;15.440;2023-05-16T03:08:07;96610.56;;;10.35;100.00
3668;BME280;24099;47.102;15.440;2023-05-16T03:10:36;96618.97;;;10.24;100.00
3668;BME280;24099;47.102;15.440;2023-05-16T03:13:03;96613.19;;;10.35;100.00
3668;BME280;24099;47.102;15.440;2023-05-16T03:15:34;96606.88;;;10.30;100.00
3668;BME280;24099;47.102;15.440;2023-05-16T03:18:03;96612.84;;;10.17;100.00
3668;BME280;24099;47.102;15.440;2023-05-16T03:20:31;96631.09;;;10.19;100.00
3668;BME280;24099;47.102;15.440;2023-05-16T03:22:59;96635.00;;;10.29;100.00
3668;BME280;24099;47.102;15.440;2023-05-16T03:25:28;96635.66;;;10.38;100.00
3668;BME280;24099;47.102;15.440;2023-05-16T03:27:56;96650.81;;;10.36;100.00
3668;BME280;24099;47.102;15.440;2023-05-16T03:30:24;96641.06;;;10.30;100.00
3668;BME280;24099;47.102;15.440;2023-05-16T03:32:52;96642.91;;;10.08;100.00
3668;BME280;24099;47.102;15.440;2023-05-16T03:35:20;96659.94;;;10.12;100.00
3668;BME280;24099;47.102;15.440;2023-05-16T03:37:48;96656.78;;;10.23;100.00
3668;BME280;24099;47.102;15.440;2023-05-16T03:40:16;96659.53;;;10.37;100.00
3668;BME280;24099;47.102;15.440;2023-05-16T03:42:46;96656.56;;;10.18;100.00
3668;BME280;24099;47.102;15.440;2023-05-16T03:45:16;96642.78;;;10.16;100.00
3668;BME280;24099;47.102;15.440;2023-05-16T03:47:44;96632.69;;;10.20;100.00
3668;BME280;24099;47.102;15.440;2023-05-16T03:50:12;96639.09;;;10.39;100.00
3668;BME280;24099;47.102;15.440;2023-05-16T03:52:39;96632.75;;;10.26;100.00
3668;BME280;24099;47.102;15.440;2023-05-16T03:55:07;96625.84;;;10.19;100.00
3668;BME280;24099;47.102;15.440;2023-05-16T03:57:36;96628.69;;;10.24;100.00
3668;BME280;24099;47.102;15.440;2023-05-16T04:00:07;96636.56;;;10.24;100.00
3668;BME280;24099;47.102;15.440;2023-05-16T04:02:39;96639.44;;;10.29;100.00
3668;BME280;24099;47.102;15.440;2023-05-16T04:05:07;96633.81;;;10.32;100.00
3668;BME280;24099;47.102;15.440;2023-05-16T04:07:36;96635.44;;;10.40;100.00
3668;BME280;24099;47.102;15.440;2023-05-16T04:10:05;96639.31;;;10.44;100.00
3668;BME280;24099;47.102;15.440;2023-05-16T04:12:32;96633.66;;;10.47;100.00
3668;BME280;24099;47.102;15.440;2023-05-16T04:15:00;96630.34;;;10.31;100.00
3668;BME280;24099;47.102;15.440;2023-05-16T04:17:31;96631.97;;;10.32;100.00
3668;BME280;24099;47.102;15.440;2023-05-16T04:19:59;96631.78;;;10.34;100.00
3668;BME280;24099;47.102;15.440;2023-05-16T04:22:27;96642.44;;;10.26;100.00
3668;BME280;24099;47.102;15.440;2023-05-16T04:24:58;96644.94;;;10.34;100.00
3668;BME280;24099;47.102;15.440;2023-05-16T04:27:26;96641.38;;;10.48;100.00
3668;BME280;24099;47.102;15.440;2023-05-16T04:29:54;96645.75;;;10.34;100.00
3668;BME280;24099;47.102;15.440;2023-05-16T04:32:22;96651.41;;;10.31;100.00
3668;BME280;24099;47.102;15.440;2023-05-16T04:34:51;96646.56;;;10.35;100.00
3668;BME280;24099;47.102;15.440;2023-05-16T04:37:19;96642.31;;;10.34;100.00
3668;BME280;24099;47.102;15.440;2023-05-16T04:39:47;96646.22;;;10.45;100.00
3668;BME280;24099;47.102;15.440;2023-05-16T04:42:16;96638.13;;;10.46;100.00
3668;BME280;24099;47.102;15.440;2023-05-16T04:44:44;96656.91;;;10.43;100.00
3668;BME280;24099;47.102;15.440;2023-05-16T04:47:13;96654.97;;;10.52;100.00
3668;BME280;24099;47.102;15.440;2023-05-16T04:49:40;96665.25;;;10.47;100.00
3668;BME280;24099;47.102;15.440;2023-05-16T04:52:10;96660.03;;;10.53;100.00
3668;BME280;24099;47.102;15.440;2023-05-16T04:54:40;96656.22;;;10.56;100.00
3668;BME280;24099;47.102;15.440;2023-05-16T04:57:08;96653.38;;;10.57;100.00
3668;BME280;24099;47.102;15.440;2023-05-16T04:59:35;96661.63;;;10.48;100.00
3668;BME280;24099;47.102;15.440;2023-05-16T05:02:04;96665.06;;;10.48;100.00
3668;BME280;24099;47.102;15.440;2023-05-16T05:04:32;96665.25;;;10.47;100.00
3668;BME280;24099;47.102;15.440;2023-05-16T05:07:00;96661.41;;;10.49;100.00
3668;BME280;24099;47.102;15.440;2023-05-16T05:09:29;96665.69;;;10.50;100.00
3668;BME280;24099;47.102;15.440;2023-05-16T05:11:57;96668.50;;;10.49;100.00
3668;BME280;24099;47.102;15.440;2023-05-16T05:14:25;96674.63;;;10.56;100.00
3668;BME280;24099;47.102;15.440;2023-05-16T05:16:52;96674.19;;;10.52;100.00
3668;BME280;24099;47.102;15.440;2023-05-16T05:19:20;96678.06;;;10.56;100.00
3668;BME280;24099;47.102;15.440;2023-05-16T05:21:48;96674.44;;;10.64;100.00
3668;BME280;24099;47.102;15.440;2023-05-16T05:24:16;96668.81;;;10.67;100.00
3668;BME280;24099;47.102;15.440;2023-05-16T05:26:49;96669.19;;;10.64;100.00
3668;BME280;24099;47.102;15.440;2023-05-16T05:29:16;96662.91;;;10.65;100.00
3668;BME280;24099;47.102;15.440;2023-05-16T05:31:44;96669.03;;;10.72;100.00
3668;BME280;24099;47.102;15.440;2023-05-16T05:34:12;96663.97;;;10.70;100.00
3668;BME280;24099;47.102;15.440;2023-05-16T05:36:40;96666.22;;;10.74;100.00
3668;BME280;24099;47.102;15.440;2023-05-16T05:39:08;96667.66;;;10.76;100.00
3668;BME280;24099;47.102;15.440;2023-05-16T05:41:36;96658.56;;;10.85;100.00
3668;BME280;24099;47.102;15.440;2023-05-16T05:44:05;96661.19;;;10.85;100.00
3668;BME280;24099;47.102;15.440;2023-05-16T05:46:33;96668.94;;;10.93;100.00
3668;BME280;24099;47.102;15.440;2023-05-16T05:49:02;96673.13;;;10.81;100.00
3668;BME280;24099;47.102;15.440;2023-05-16T05:51:30;96667.69;;;10.89;100.00
3668;BME280;24099;47.102;15.440;2023-05-16T05:53:58;96672.28;;;10.74;100.00
3668;BME280;24099;47.102;15.440;2023-05-16T05:56:25;96665.84;;;10.83;100.00
3668;BME280;24099;47.102;15.440;2023-05-16T05:58:53;96662.84;;;10.93;100.00
3668;BME280;24099;47.102;15.440;2023-05-16T06:01:23;96670.31;;;10.89;100.00
3668;BME280;24099;47.102;15.440;2023-05-16T06:03:52;96647.88;;;10.93;100.00
3668;BME280;24099;47.102;15.440;2023-05-16T06:06:20;96667.53;;;10.97;100.00
3668;BME280;24099;47.102;15.440;2023-05-16T06:08:48;96654.03;;;11.14;100.00
3668;BME280;24099;47.102;15.440;2023-05-16T06:11:15;96650.97;;;11.10;100.00
3668;BME280;24099;47.102;15.440;2023-05-16T06:13:43;96649.34;;;11.09;100.00
3668;BME280;24099;47.102;15.440;2023-05-16T06:16:11;96656.03;;;11.12;100.00
3668;BME280;24099;47.102;15.440;2023-05-16T06:18:43;96668.81;;;11.21;100.00
3668;BME280;24099;47.102;15.440;2023-05-16T06:21:11;96683.81;;;11.21;100.00
3668;BME280;24099;47.102;15.440;2023-05-16T06:23:39;96687.47;;;11.26;100.00
3668;BME280;24099;47.102;15.440;2023-05-16T06:26:07;96700.66;;;11.26;100.00
3668;BME280;24099;47.102;15.440;2023-05-16T06:28:34;96705.88;;;11.20;100.00
3668;BME280;24099;47.102;15.440;2023-05-16T06:31:02;96711.22;;;11.33;100.00
3668;BME280;24099;47.102;15.440;2023-05-16T06:33:30;96730.88;;;11.30;100.00
3668;BME280;24099;47.102;15.440;2023-05-16T06:36:02;96733.19;;;11.53;100.00
3668;BME280;24099;47.102;15.440;2023-05-16T06:38:30;96747.78;;;11.56;100.00
3668;BME280;24099;47.102;15.440;2023-05-16T06:40:58;96755.88;;;11.61;100.00
3668;BME280;24099;47.102;15.440;2023-05-16T06:43:25;96777.94;;;11.47;100.00
3668;BME280;24099;47.102;15.440;2023-05-16T06:45:55;96782.97;;;11.35;100.00
3668;BME280;24099;47.102;15.440;2023-05-16T06:48:23;96783.53;;;11.24;100.00
3668;BME280;24099;47.102;15.440;2023-05-16T06:50:51;96784.31;;;11.18;100.00
3668;BME280;24099;47.102;15.440;2023-05-16T06:53:23;96783.53;;;11.24;100.00
3668;BME280;24099;47.102;15.440;2023-05-16T06:55:51;96794.19;;;11.09;100.00
3668;BME280;24099;47.102;15.440;2023-05-16T06:58:19;96798.03;;;11.07;100.00
3668;BME280;24099;47.102;15.440;2023-05-16T07:00:49;96794.88;;;11.24;100.00
3668;BME280;24099;47.102;15.440;2023-05-16T07:03:27;96782.31;;;11.26;100.00
3668;BME280;24099;47.102;15.440;2023-05-16T07:06:18;96771.34;;;11.23;100.00
3668;BME280;24099;47.102;15.440;2023-05-16T07:08:47;96764.88;;;11.25;100.00
3668;BME280;24099;47.102;15.440;2023-05-16T07:11:21;96767.09;;;11.22;100.00
3668;BME280;24099;47.102;15.440;2023-05-16T07:13:48;96772.97;;;11.24;100.00
3668;BME280;24099;47.102;15.440;2023-05-16T07:16:16;96766.38;;;11.41;100.00
3668;BME280;24099;47.102;15.440;2023-05-16T07:18:44;96758.03;;;11.31;100.00
3668;BME280;24099;47.102;15.440;2023-05-16T07:21:11;96753.53;;;11.25;100.00
3668;BME280;24099;47.102;15.440;2023-05-16T07:23:39;96738.94;;;11.22;100.00
3668;BME280;24099;47.102;15.440;2023-05-16T07:26:08;96734.47;;;11.23;100.00
3668;BME280;24099;47.102;15.440;2023-05-16T07:28:36;96727.34;;;11.10;100.00
3668;BME280;24099;47.102;15.440;2023-05-16T07:31:04;96732.88;;;11.28;100.00
3668;BME280;24099;47.102;15.440;2023-05-16T07:33:33;96726.41;;;11.31;100.00
3668;BME280;24099;47.102;15.440;2023-05-16T07:36:01;96713.81;;;11.26;100.00
3668;BME280;24099;47.102;15.440;2023-05-16T07:38:31;96713.44;;;11.29;100.00
3668;BME280;24099;47.102;15.440;2023-05-16T07:41:02;96715.91;;;11.37;100.00
3668;BME280;24099;47.102;15.440;2023-05-16T07:43:34;96717.13;;;11.35;100.00
3668;BME280;24099;47.102;15.440;2023-05-16T07:46:02;96714.91;;;11.38;100.00
3668;BME280;24099;47.102;15.440;2023-05-16T07:48:30;96728.84;;;11.39;100.00
3668;BME280;24099;47.102;15.440;2023-05-16T07:50:58;96728.06;;;11.45;100.00
3668;BME280;24099;47.102;15.440;2023-05-16T07:53:27;96730.72;;;11.45;100.00
3668;BME280;24099;47.102;15.440;2023-05-16T07:56:01;96723.59;;;11.39;100.00
3668;BME280;24099;47.102;15.440;2023-05-16T07:58:29;96715.50;;;11.40;100.00
3668;BME280;24099;47.102;15.440;2023-05-16T08:01:00;96714.09;;;11.38;100.00
3668;BME280;24099;47.102;15.440;2023-05-16T08:03:28;96707.59;;;11.34;100.00
3668;BME280;24099;47.102;15.440;2023-05-16T08:05:56;96697.03;;;11.40;100.00
3668;BME280;24099;47.102;15.440;2023-05-16T08:08:24;96694.03;;;11.50;100.00
3668;BME280;24099;47.102;15.440;2023-05-16T08:10:51;96684.34;;;11.57;100.00
3668;BME280;24099;47.102;15.440;2023-05-16T08:13:19;96682.50;;;11.64;100.00
3668;BME280;24099;47.102;15.440;2023-05-16T08:15:47;96675.41;;;11.65;100.00
3668;BME280;24099;47.102;15.440;2023-05-16T08:18:16;96668.91;;;11.61;100.00
3668;BME280;24099;47.102;15.440;2023-05-16T08:20:44;96674.19;;;11.61;100.00
3668;BME280;24099;47.102;15.440;2023-05-16T08:23:12;96680.47;;;11.53;100.00
3668;BME280;24099;47.102;15.440;2023-05-16T08:25:41;96672.78;;;11.65;100.00
3668;BME280;24099;47.102;15.440;2023-05-16T08:28:08;96680.28;;;11.68;100.00
3668;BME280;24099;47.102;15.440;2023-05-16T08:30:36;96688.44;;;11.80;100.00
3668;BME280;24099;47.102;15.440;2023-05-16T08:33:04;96685.16;;;11.71;100.00
3668;BME280;24099;47.102;15.440;2023-05-16T08:35:33;96698.53;;;11.69;100.00
3668;BME280;24099;47.102;15.440;2023-05-16T08:38:01;96704.00;;;11.68;100.00
3668;BME280;24099;47.102;15.440;2023-05-16T08:40:29;96710.56;;;11.79;100.00
3668;BME280;24099;47.102;15.440;2023-05-16T08:42:57;96718.47;;;11.79;100.00
3668;BME280;24099;47.102;15.440;2023-05-16T08:45:28;96720.66;;;11.75;100.00
3668;BME280;24099;47.102;15.440;2023-05-16T08:47:57;96740.81;;;12.09;100.00
3668;BME280;24099;47.102;15.440;2023-05-16T08:50:31;96752.16;;;11.90;100.00
3668;BME280;24099;47.102;15.440;2023-05-16T08:53:04;96746.03;;;11.76;100.00
3668;BME280;24099;47.102;15.440;2023-05-16T08:55:33;96722.66;;;11.66;100.00
3668;BME280;24099;47.102;15.440;2023-05-16T08:58:07;96708.69;;;11.72;100.00
3668;BME280;24099;47.102;15.440;2023-05-16T09:00:35;96700.41;;;11.89;100.00
3668;BME280;24099;47.102;15.440;2023-05-16T09:03:03;96691.72;;;11.95;100.00
3668;BME280;24099;47.102;15.440;2023-05-16T09:05:35;96692.13;;;11.98;100.00
3668;BME280;24099;47.102;15.440;2023-05-16T09:08:05;96690.91;;;12.14;100.00
3668;BME280;24099;47.102;15.440;2023-05-16T09:10:32;96677.50;;;12.22;100.00
3668;BME280;24099;47.102;15.440;2023-05-16T09:13:00;96702.06;;;12.36;100.00
3668;BME280;24099;47.102;15.440;2023-05-16T09:15:32;96683.72;;;12.61;100.00
3668;BME280;24099;47.102;15.440;2023-05-16T09:18:02;96681.72;;;12.43;100.00
3668;BME280;24099;47.102;15.440;2023-05-16T09:20:30;96691.28;;;12.24;100.00
3668;BME280;24099;47.102;15.440;2023-05-16T09:23:03;96707.53;;;12.28;100.00
3668;BME280;24099;47.102;15.440;2023-05-16T09:25:31;96701.84;;;12.37;100.00
3668;BME280;24099;47.102;15.440;2023-05-16T09:28:00;96692.50;;;12.28;100.00
3668;BME280;24099;47.102;15.440;2023-05-16T09:30:29;96696.56;;;12.24;100.00
3668;BME280;24099;47.102;15.440;2023-05-16T09:32:57;96704.09;;;12.34;100.00
3668;BME280;24099;47.102;15.440;2023-05-16T09:35:26;96698.19;;;12.38;100.00
3668;BME280;24099;47.102;15.440;2023-05-16T09:37:54;96690.88;;;12.40;100.00
3668;BME280;24099;47.102;15.440;2023-05-16T09:40:23;96706.91;;;12.52;100.00
3668;BME280;24099;47.102;15.440;2023-05-16T09:43:01;96716.03;;;12.56;100.00
3668;BME280;24099;47.102;15.440;2023-05-16T09:45:30;96709.75;;;12.51;100.00
3668;BME280;24099;47.102;15.440;2023-05-16T09:48:03;96701.00;;;12.50;100.00
3668;BME280;24099;47.102;15.440;2023-05-16T09:50:32;96705.28;;;12.45;100.00
3668;BME280;24099;47.102;15.440;2023-05-16T09:53:00;96711.59;;;12.57;100.00
3668;BME280;24099;47.102;15.440;2023-05-16T09:55:30;96710.97;;;12.55;100.00
3668;BME280;24099;47.102;15.440;2023-05-16T09:58:00;96712.19;;;12.59;100.00
3668;BME280;24099;47.102;15.440;2023-05-16T10:00:29;96721.69;;;12.60;100.00
3668;BME280;24099;47.102;15.440;2023-05-16T10:02:58;96733.31;;;12.59;100.00
3668;BME280;24099;47.102;15.440;2023-05-16T10:05:26;96735.53;;;12.55;100.00
3668;BME280;24099;47.102;15.440;2023-05-16T10:07:55;96720.50;;;12.23;100.00
3668;BME280;24099;47.102;15.440;2023-05-16T10:10:24;96709.97;;;12.16;100.00
3668;BME280;24099;47.102;15.440;2023-05-16T10:12:53;96703.06;;;12.28;100.00
3668;BME280;24099;47.102;15.440;2023-05-16T10:15:26;96691.47;;;12.42;100.00
3668;BME280;24099;47.102;15.440;2023-05-16T10:17:55;96683.72;;;12.74;100.00
3668;BME280;24099;47.102;15.440;2023-05-16T10:20:25;96668.31;;;12.51;100.00
3668;BME280;24099;47.102;15.440;2023-05-16T10:22:55;96667.75;;;12.36;100.00
3668;BME280;24099;47.102;15.440;2023-05-16T10:25:27;96671.94;;;12.76;100.00
3668;BME280;24099;47.102;15.440;2023-05-16T10:27:57;96675.22;;;12.52;100.00
3668;BME280;24099;47.102;15.440;2023-05-16T10:30:28;96666.22;;;12.80;100.00
3668;BME280;24099;47.102;15.440;2023-05-16T10:32:59;96672.97;;;12.62;100.00
3668;BME280;24099;47.102;15.440;2023-05-16T10:35:27;96666.47;;;12.65;100.00
3668;BME280;24099;47.102;15.440;2023-05-16T10:37:56;96649.41;;;12.61;100.00
3668;BME280;24099;47.102;15.440;2023-05-16T10:40:24;96639.34;;;12.18;100.00
3668;BME280;24099;47.102;15.440;2023-05-16T10:42:57;96630.41;;;12.32;100.00
3668;BME280;24099;47.102;15.440;2023-05-16T10:45:38;96625.28;;;12.44;100.00
3668;BME280;24099;47.102;15.440;2023-05-16T10:48:07;96629.50;;;12.65;100.00
3668;BME280;24099;47.102;15.440;2023-05-16T10:50:39;96607.06;;;12.29;100.00
3668;BME280;24099;47.102;15.440;2023-05-16T10:53:17;96600.34;;;12.33;100.00
3668;BME280;24099;47.102;15.440;2023-05-16T10:56:05;96619.38;;;12.55;100.00
3668;BME280;24099;47.102;15.440;2023-05-16T10:58:43;96624.03;;;12.60;100.00
3668;BME280;24099;47.102;15.440;2023-05-16T11:01:23;96607.53;;;12.71;100.00
3668;BME280;24099;47.102;15.440;2023-05-16T11:04:08;96592.19;;;12.55;100.00
3668;BME280;24099;47.102;15.440;2023-05-16T11:06:50;96593.75;;;12.62;100.00
3668;BME280;24099;47.102;15.440;2023-05-16T11:09:24;96594.53;;;12.76;100.00
3668;BME280;24099;47.102;15.440;2023-05-16T11:11:59;96585.00;;;12.68;100.00
3668;BME280;24099;47.102;15.440;2023-05-16T11:14:36;96560.81;;;12.78;100.00
3668;BME280;24099;47.102;15.440;2023-05-16T11:17:07;96561.44;;;12.73;100.00
3668;BME280;24099;47.102;15.440;2023-05-16T11:19:41;96563.56;;;12.96;100.00
3668;BME280;24099;47.102;15.440;2023-05-16T11:22:10;96556.25;;;12.92;100.00
3668;BME280;24099;47.102;15.440;2023-05-16T11:24:52;96569.38;;;13.05;100.00
3668;BME280;24099;47.102;15.440;2023-05-16T11:27:23;96569.56;;;13.17;100.00
3668;BME280;24099;47.102;15.440;2023-05-16T11:29:53;96568.75;;;13.09;100.00
3668;BME280;24099;47.102;15.440;2023-05-16T11:32:24;96569.44;;;12.98;100.00
3668;BME280;24099;47.102;15.440;2023-05-16T11:34:52;96582.59;;;13.05;100.00
3668;BME280;24099;47.102;15.440;2023-05-16T11:37:20;96584.72;;;12.83;100.00
3668;BME280;24099;47.102;15.440;2023-05-16T11:39:48;96582.88;;;12.90;100.00
3668;BME280;24099;47.102;15.440;2023-05-16T11:42:16;96582.38;;;12.62;100.00
3668;BME280;24099;47.102;15.440;2023-05-16T11:44:44;96578.72;;;12.69;100.00
3668;BME280;24099;47.102;15.440;2023-05-16T11:47:13;96570.69;;;12.89;100.00
3668;BME280;24099;47.102;15.440;2023-05-16T11:49:41;96548.19;;;12.80;100.00
3668;BME280;24099;47.102;15.440;2023-05-16T11:52:09;96548.28;;;12.60;100.00
3668;BME280;24099;47.102;15.440;2023-05-16T11:54:37;96553.44;;;12.87;100.00
3668;BME280;24099;47.102;15.440;2023-05-16T11:57:06;96554.84;;;12.89;100.00
3668;BME280;24099;47.102;15.440;2023-05-16T11:59:36;96543.91;;;12.79;100.00
3668;BME280;24099;47.102;15.440;2023-05-16T12:02:04;96536.84;;;12.73;100.00
3668;BME280;24099;47.102;15.440;2023-05-16T12:04:36;96524.97;;;12.95;100.00
3668;BME280;24099;47.102;15.440;2023-05-16T12:07:04;96515.03;;;12.91;100.00
3668;BME280;24099;47.102;15.440;2023-05-16T12:09:32;96520.09;;;12.92;100.00
3668;BME280;24099;47.102;15.440;2023-05-16T12:12:02;96525.88;;;13.07;100.00
3668;BME280;24099;47.102;15.440;2023-05-16T12:14:31;96522.44;;;13.07;100.00
3668;BME280;24099;47.102;15.440;2023-05-16T12:16:59;96512.41;;;12.84;100.00
3668;BME280;24099;47.102;15.440;2023-05-16T12:19:29;96512.06;;;12.74;100.00
3668;BME280;24099;47.102;15.440;2023-05-16T12:21:59;96504.13;;;13.12;100.00
3668;BME280;24099;47.102;15.440;2023-05-16T12:24:30;96500.31;;;13.01;100.00
3668;BME280;24099;47.102;15.440;2023-05-16T12:26:58;96503.41;;;13.30;100.00
3668;BME280;24099;47.102;15.440;2023-05-16T12:29:25;96504.22;;;12.99;100.00
3668;BME280;24099;47.102;15.440;2023-05-16T12:31:53;96493.69;;;12.92;100.00
3668;BME280;24099;47.102;15.440;2023-05-16T12:34:21;96486.28;;;13.01;100.00
3668;BME280;24099;47.102;15.440;2023-05-16T12:36:52;96480.38;;;12.74;100.00
3668;BME280;24099;47.102;15.440;2023-05-16T12:39:22;96469.84;;;12.67;100.00
3668;BME280;24099;47.102;15.440;2023-05-16T12:41:49;96473.78;;;12.58;100.00
3668;BME280;24099;47.102;15.440;2023-05-16T12:44:18;96463.38;;;12.63;100.00
3668;BME280;24099;47.102;15.440;2023-05-16T12:46:48;96466.66;;;12.59;100.00
3668;BME280;24099;47.102;15.440;2023-05-16T12:49:19;96470.47;;;12.63;100.00
3668;BME280;24099;47.102;15.440;2023-05-16T12:51:49;96464.06;;;12.84;100.00
3668;BME280;24099;47.102;15.440;2023-05-16T12:54:18;96463.50;;;13.06;100.00
3668;BME280;24099;47.102;15.440;2023-05-16T12:56:49;96461.88;;;13.05;100.00
3668;BME280;24099;47.102;15.440;2023-05-16T12:59:17;96465.97;;;13.01;100.00
3668;BME280;24099;47.102;15.440;2023-05-16T13:01:47;96464.94;;;13.02;100.00